createdAt,value
2022-11-21T00:02:32.047Z,12.95
2022-11-21T00:05:04.951Z,14.98
2022-11-21T00:07:37.376Z,23.98
2022-11-21T00:10:10.550Z,14.57
2022-11-21T00:12:42.944Z,9.73
2022-11-21T00:15:15.308Z,9.27
2022-11-21T00:17:47.603Z,8.07
2022-11-21T00:20:21.460Z,12.40
2022-11-21T00:22:53.834Z,14.23
2022-11-21T00:25:26.792Z,7.53
2022-11-21T00:27:59.125Z,9.25
2022-11-21T00:30:31.617Z,13.60
2022-11-21T00:33:04.108Z,10.27
2022-11-21T00:35:36.540Z,10.75
2022-11-21T00:38:08.842Z,11.88
2022-11-21T00:40:43.259Z,8.18
2022-11-21T00:43:15.692Z,6.68
2022-11-21T00:45:48.027Z,7.25
2022-11-21T00:48:20.356Z,7.45
2022-11-21T00:50:52.685Z,5.28
2022-11-21T00:53:25.040Z,9.25
2022-11-21T00:55:58.224Z,5.50
2022-11-21T00:58:30.596Z,3.20
2022-11-21T01:01:05.463Z,1.75
2022-11-21T01:03:38.534Z,0.88
2022-11-21T01:06:12.598Z,0.28
2022-11-21T01:08:45.346Z,0.55
2022-11-21T01:11:19.965Z,0.50
2022-11-21T01:13:53.633Z,1.25
2022-11-21T01:16:27.516Z,0.65
2022-11-21T01:18:59.840Z,2.38
2022-11-21T01:21:32.236Z,1.45
2022-11-21T01:24:04.869Z,1.60
2022-11-21T01:26:38.125Z,2.08
2022-11-21T01:29:10.490Z,0.57
2022-11-21T01:31:42.812Z,0.85
2022-11-21T01:34:15.563Z,1.13
2022-11-21T01:36:47.956Z,3.22
2022-11-21T01:39:20.272Z,0.50
2022-11-21T01:41:53.224Z,0.40
2022-11-21T01:44:45.156Z,3.10
2022-11-21T01:47:17.907Z,3.38
2022-11-21T01:49:52.107Z,0.35
2022-11-21T01:52:28.528Z,4.28
2022-11-21T01:55:04.617Z,1.15
2022-11-21T01:57:40.866Z,1.60
2022-11-21T02:00:17.664Z,0.70
2022-11-21T02:02:55.092Z,2.08
2022-11-21T02:05:30.796Z,1.23
2022-11-21T02:08:07.410Z,0.63
2022-11-21T02:10:46.366Z,0.30
2022-11-21T02:13:22.040Z,1.15
2022-11-21T02:15:55.148Z,1.15
2022-11-21T02:18:27.510Z,0.20
2022-11-21T02:21:09.080Z,0.40
2022-11-21T02:23:49.040Z,3.65
2022-11-21T02:26:22.223Z,2.50
2022-11-21T02:28:54.568Z,2.40
2022-11-21T02:31:26.986Z,1.20
2022-11-21T02:33:59.341Z,0.57
2022-11-21T02:36:43.405Z,0.85
2022-11-21T02:39:21.239Z,1.15
2022-11-21T02:42:01.997Z,3.53
2022-11-21T02:44:40.315Z,2.40
2022-11-21T02:47:12.702Z,0.93
2022-11-21T02:49:50.565Z,0.88
2022-11-21T02:52:23.068Z,0.68
2022-11-21T02:54:55.404Z,4.45
2022-11-21T02:57:28.451Z,0.38
2022-11-21T03:00:00.796Z,1.02
2022-11-21T03:02:33.113Z,1.55
2022-11-21T03:05:07.566Z,3.45
2022-11-21T03:07:39.935Z,0.85
2022-11-21T03:10:13.297Z,0.38
2022-11-21T03:12:46.232Z,2.95
2022-11-21T03:15:18.665Z,0.88
2022-11-21T03:17:51.007Z,9.95
2022-11-21T03:20:23.792Z,2.47
2022-11-21T03:22:56.253Z,1.13
2022-11-21T03:25:29.070Z,2.63
2022-11-21T03:28:02.104Z,0.60
2022-11-21T03:30:34.449Z,1.02
2022-11-21T03:33:06.772Z,0.98
2022-11-21T03:35:39.135Z,1.38
2022-11-21T03:38:11.473Z,5.63
2022-11-21T03:40:43.752Z,0.68
2022-11-21T03:43:16.747Z,2.03
2022-11-21T03:45:49.122Z,2.33
2022-11-21T03:48:21.466Z,0.38
2022-11-21T03:50:54.018Z,3.13
2022-11-21T03:53:26.357Z,1.98
2022-11-21T03:55:58.687Z,1.17
2022-11-21T03:58:31.723Z,0.32
2022-11-21T04:01:04.756Z,1.20
2022-11-21T04:03:37.179Z,4.88
2022-11-21T04:06:10.140Z,0.77
2022-11-21T04:08:42.610Z,3.42
2022-11-21T04:11:15.209Z,2.05
2022-11-21T04:13:48.243Z,3.40
2022-11-21T04:16:21.020Z,3.90
2022-11-21T04:18:53.346Z,5.65
2022-11-21T04:21:25.732Z,1.83
2022-11-21T04:23:58.061Z,1.27
2022-11-21T04:26:30.439Z,2.85
2022-11-21T04:29:03.428Z,4.63
2022-11-21T04:31:35.994Z,1.83
2022-11-21T04:34:08.299Z,2.42
2022-11-21T04:36:40.671Z,3.35
2022-11-21T04:39:13.063Z,2.28
2022-11-21T04:41:45.502Z,2.40
2022-11-21T04:44:18.542Z,6.30
2022-11-21T04:46:52.474Z,0.98
2022-11-21T04:49:24.932Z,1.25
2022-11-21T04:51:57.299Z,11.30
2022-11-21T04:54:30.097Z,8.90
2022-11-21T04:57:02.833Z,0.85
2022-11-21T04:59:35.848Z,1.45
2022-11-21T05:02:08.219Z,3.50
2022-11-21T05:04:40.541Z,1.02
2022-11-21T05:07:13.274Z,1.00
2022-11-21T05:09:45.810Z,0.40
2022-11-21T05:12:36.264Z,2.78
2022-11-21T05:15:10.130Z,0.22
2022-11-21T05:17:42.463Z,4.43
2022-11-21T05:20:15.400Z,4.63
2022-11-21T05:22:51.425Z,1.95
2022-11-21T05:25:23.905Z,0.73
2022-11-21T05:27:56.691Z,0.45
2022-11-21T05:30:29.661Z,0.50
2022-11-21T05:33:02.056Z,2.63
2022-11-21T05:35:37.670Z,4.28
2022-11-21T05:38:12.653Z,3.38
2022-11-21T05:40:45.032Z,5.75
2022-11-21T05:43:35.749Z,0.52
2022-11-21T05:46:08.787Z,1.95
2022-11-21T05:48:41.479Z,2.25
2022-11-21T05:51:14.414Z,0.85
2022-11-21T05:53:47.603Z,7.03
2022-11-21T05:56:20.073Z,1.75
2022-11-21T05:58:55.022Z,0.52
2022-11-21T06:01:54.595Z,8.55
2022-11-21T06:04:27.139Z,1.77
2022-11-21T06:06:59.568Z,3.20
2022-11-21T06:09:31.971Z,2.67
2022-11-21T06:12:04.601Z,2.95
2022-11-21T06:14:37.008Z,4.15
2022-11-21T06:17:11.726Z,4.43
2022-11-21T06:19:44.140Z,1.58
2022-11-21T06:22:16.530Z,3.65
2022-11-21T06:24:48.881Z,2.88
2022-11-21T06:27:21.218Z,1.67
2022-11-21T06:29:53.645Z,5.70
2022-11-21T06:32:26.634Z,2.60
2022-11-21T06:34:58.977Z,2.35
2022-11-21T06:37:31.324Z,1.65
2022-11-21T06:40:04.474Z,1.83
2022-11-21T06:42:36.771Z,1.27
2022-11-21T06:45:09.885Z,2.42
2022-11-21T06:47:42.909Z,4.47
2022-11-21T06:50:15.985Z,0.85
2022-11-21T06:52:48.392Z,1.65
2022-11-21T06:55:22.767Z,3.08
2022-11-21T06:57:57.781Z,1.92
2022-11-21T07:00:30.264Z,0.98
2022-11-21T07:03:03.902Z,0.95
2022-11-21T07:05:36.181Z,0.45
2022-11-21T07:08:13.116Z,3.40
2022-11-21T07:11:10.247Z,1.27
2022-11-21T07:13:38.509Z,1.05
2022-11-21T07:16:13.561Z,1.67
2022-11-21T07:18:46.618Z,0.20
2022-11-21T07:21:18.950Z,1.42
2022-11-21T07:23:51.296Z,2.28
2022-11-21T07:26:23.661Z,2.58
2022-11-21T07:28:55.981Z,1.20
2022-11-21T07:31:28.368Z,0.35
2022-11-21T07:34:01.362Z,2.08
2022-11-21T07:36:35.430Z,1.27
2022-11-21T07:39:07.706Z,5.65
2022-11-21T07:41:39.956Z,1.25
2022-11-21T07:44:12.403Z,1.63
2022-11-21T07:46:44.741Z,1.15
2022-11-21T07:49:17.732Z,2.25
2022-11-21T07:51:50.030Z,1.73
2022-11-21T07:54:22.361Z,0.70
2022-11-21T07:56:54.996Z,0.77
2022-11-21T07:59:27.775Z,0.90
2022-11-21T08:02:00.434Z,4.03
2022-11-21T08:04:33.498Z,0.52
2022-11-21T08:07:05.878Z,1.73
2022-11-21T08:09:39.878Z,0.70
2022-11-21T08:12:13.055Z,2.45
2022-11-21T08:14:45.515Z,0.35
2022-11-21T08:17:17.890Z,0.98
2022-11-21T08:19:50.852Z,1.45
2022-11-21T08:22:23.194Z,1.13
2022-11-21T08:24:55.570Z,2.08
2022-11-21T08:27:28.131Z,3.60
2022-11-21T08:30:00.442Z,0.98
2022-11-21T08:32:32.837Z,1.55
2022-11-21T08:35:07.481Z,4.18
2022-11-21T08:37:39.859Z,4.28
2022-11-21T08:40:12.244Z,4.90
2022-11-21T08:42:44.600Z,3.83
2022-11-21T08:45:16.948Z,3.42
2022-11-21T08:47:49.274Z,1.92
2022-11-21T08:50:23.375Z,4.97
2022-11-21T08:53:00.043Z,5.63
2022-11-21T08:55:32.390Z,6.43
2022-11-21T08:58:04.827Z,2.15
2022-11-21T09:00:37.135Z,0.20
2022-11-21T09:03:09.516Z,1.27
2022-11-21T09:05:42.523Z,0.35
2022-11-21T09:08:14.891Z,0.50
2022-11-21T09:10:47.279Z,1.45
2022-11-21T09:13:19.640Z,0.90
2022-11-21T09:16:09.910Z,2.15
2022-11-21T09:18:42.235Z,1.05
2022-11-21T09:21:15.996Z,1.63
2022-11-21T09:23:48.421Z,2.40
2022-11-21T09:26:20.751Z,6.00
2022-11-21T09:28:53.133Z,6.95
2022-11-21T09:31:25.523Z,2.20
2022-11-21T09:33:57.922Z,2.00
2022-11-21T09:36:31.008Z,1.80
2022-11-21T09:39:04.024Z,3.42
2022-11-21T09:41:54.022Z,3.38
2022-11-21T09:44:47.325Z,1.92
2022-11-21T09:47:23.932Z,3.40
2022-11-21T09:49:59.761Z,2.75
2022-11-21T09:52:38.972Z,1.10
2022-11-21T09:55:20.867Z,1.52
2022-11-21T09:57:53.253Z,1.27
2022-11-21T10:00:26.252Z,2.78
2022-11-21T10:03:00.655Z,3.95
2022-11-21T10:05:41.495Z,2.97
2022-11-21T10:08:19.212Z,2.72
2022-11-21T10:10:55.623Z,2.22
2022-11-21T10:13:48.818Z,1.15
2022-11-21T10:16:31.089Z,4.78
2022-11-21T10:19:21.459Z,4.63
2022-11-21T10:22:17.944Z,3.65
2022-11-21T10:24:56.884Z,5.38
2022-11-21T10:27:34.801Z,1.35
2022-11-21T10:30:15.444Z,1.60
2022-11-21T10:32:50.430Z,2.92
2022-11-21T10:35:25.345Z,3.65
2022-11-21T10:38:00.654Z,1.83
2022-11-21T10:40:36.911Z,2.28
2022-11-21T10:43:42.157Z,4.22
2022-11-21T10:46:14.468Z,2.90
2022-11-21T10:48:54.260Z,3.15
2022-11-21T10:54:27.825Z,2.55
2022-11-21T10:57:06.985Z,2.08
2022-11-21T10:59:39.493Z,2.95
2022-11-21T11:02:23.882Z,4.78
2022-11-21T11:05:20.090Z,2.47
2022-11-21T11:08:01.643Z,3.78
2022-11-21T11:10:35.780Z,1.80
2022-11-21T11:13:49.458Z,0.93
2022-11-21T11:16:24.452Z,2.15
2022-11-21T11:19:00.113Z,3.95
2022-11-21T11:21:43.555Z,2.15
2022-11-21T11:24:26.297Z,2.33
2022-11-21T11:27:00.584Z,4.38
2022-11-21T11:29:48.520Z,1.40
2022-11-21T11:32:22.161Z,2.78
2022-11-21T11:34:59.388Z,2.35
2022-11-21T11:37:40.763Z,3.85
2022-11-21T11:40:20.940Z,4.38
2022-11-21T11:43:27.214Z,2.95
2022-11-21T11:46:36.555Z,6.90
2022-11-21T11:49:21.728Z,4.00
2022-11-21T11:51:58.342Z,8.20
2022-11-21T11:54:40.808Z,13.70
2022-11-21T11:57:13.906Z,11.43
2022-11-21T11:59:53.740Z,9.57
2022-11-21T12:02:38.876Z,6.80
2022-11-21T12:05:17.594Z,9.23
2022-11-21T12:08:40.203Z,9.32
2022-11-21T12:11:24.776Z,3.22
2022-11-21T12:14:37.016Z,2.90
2022-11-21T12:17:10.980Z,7.22
2022-11-21T12:19:44.398Z,5.93
2022-11-21T12:22:16.785Z,6.32
2022-11-21T12:24:49.219Z,1.50
2022-11-21T12:27:29.247Z,3.83
2022-11-21T12:30:20.874Z,2.28
2022-11-21T12:32:57.488Z,4.78
2022-11-21T12:35:47.283Z,3.13
2022-11-21T12:38:39.424Z,3.00
2022-11-21T12:41:42.646Z,5.28
2022-11-21T12:44:31.709Z,4.60
2022-11-21T12:47:18.226Z,3.20
2022-11-21T12:50:14.545Z,3.42
2022-11-21T12:53:11.964Z,2.63
2022-11-21T12:55:44.464Z,7.28
2022-11-21T12:58:26.651Z,11.35
2022-11-21T13:01:21.079Z,2.97
2022-11-21T13:03:59.638Z,1.67
2022-11-21T13:06:37.309Z,2.08
2022-11-21T13:09:17.554Z,2.80
2022-11-21T13:12:00.903Z,2.08
2022-11-21T13:14:41.454Z,1.33
2022-11-21T13:17:28.511Z,1.40
2022-11-21T13:20:06.465Z,2.75
2022-11-21T13:22:50.442Z,3.88
2022-11-21T13:25:45.582Z,2.13
2022-11-21T13:28:37.317Z,1.92
2022-11-21T13:31:31.170Z,1.33
2022-11-21T13:34:04.575Z,1.27
2022-11-21T13:36:41.192Z,0.40
2022-11-21T13:39:33.261Z,2.58
2022-11-21T13:42:26.619Z,2.15
2022-11-21T13:45:19.902Z,2.03
2022-11-21T13:48:31.231Z,1.35
2022-11-21T13:51:37.147Z,1.05
2022-11-21T13:54:45.202Z,1.92
2022-11-21T13:57:40.651Z,1.60
2022-11-21T14:00:29.476Z,2.00
2022-11-21T14:03:55.719Z,1.73
2022-11-21T14:06:35.896Z,3.53
2022-11-21T14:09:19.994Z,4.72
2022-11-21T14:11:56.088Z,3.92
2022-11-21T14:14:33.335Z,2.47
2022-11-21T14:17:32.631Z,2.17
2022-11-21T14:20:16.451Z,3.05
2022-11-21T14:23:02.571Z,3.03
2022-11-21T14:25:44.386Z,3.22
2022-11-21T14:28:22.954Z,2.67
2022-11-21T14:31:00.274Z,1.55
2022-11-21T14:33:34.044Z,2.83
2022-11-21T14:36:08.590Z,1.02
2022-11-21T14:38:43.113Z,2.00
2022-11-21T14:41:32.018Z,5.13
2022-11-21T14:44:13.563Z,3.20
2022-11-21T14:46:47.722Z,4.95
2022-11-21T14:49:28.376Z,7.05
2022-11-21T14:52:16.500Z,7.97
2022-11-21T14:57:45.267Z,3.38
2022-11-21T15:00:51.331Z,4.60
2022-11-21T15:03:19.963Z,2.65
2022-11-21T15:06:05.733Z,8.25
2022-11-21T15:11:36.542Z,4.43
2022-11-21T15:14:18.942Z,6.47
2022-11-21T15:16:52.966Z,6.32
2022-11-21T15:19:28.679Z,4.20
2022-11-21T15:22:03.588Z,4.13
2022-11-21T15:24:41.645Z,3.97
2022-11-21T15:27:29.759Z,4.43
2022-11-21T15:30:21.440Z,6.38
2022-11-21T15:33:09.291Z,13.77
2022-11-21T15:35:47.405Z,5.82
2022-11-21T15:38:24.718Z,3.35
2022-11-21T15:41:02.787Z,10.05
2022-11-21T15:43:41.151Z,14.35
2022-11-21T15:46:18.441Z,11.00
2022-11-21T15:48:52.369Z,8.45
2022-11-21T15:51:44.351Z,3.38
2022-11-21T15:54:21.088Z,3.90
2022-11-21T15:56:53.518Z,6.30
2022-11-21T15:59:26.271Z,4.35
2022-11-21T16:01:58.981Z,5.00
2022-11-21T16:04:31.302Z,6.20
2022-11-21T16:07:04.276Z,7.53
2022-11-21T16:09:37.928Z,6.15
2022-11-21T16:12:10.213Z,3.88
2022-11-21T16:14:42.522Z,3.80
2022-11-21T16:17:15.006Z,3.42
2022-11-21T16:19:47.289Z,3.35
2022-11-21T16:22:20.282Z,3.40
2022-11-21T16:24:52.611Z,12.00
2022-11-21T16:27:24.968Z,10.10
2022-11-21T16:29:57.427Z,13.48
2022-11-21T16:32:29.933Z,8.07
2022-11-21T16:35:02.330Z,10.45
2022-11-21T16:37:35.352Z,12.68
2022-11-21T16:40:09.724Z,11.25
2022-11-21T16:42:42.073Z,13.57
2022-11-21T16:45:14.807Z,9.98
2022-11-21T16:47:48.951Z,11.50
2022-11-21T16:50:21.914Z,29.17
2022-11-21T16:52:54.952Z,18.33
2022-11-21T16:55:29.790Z,9.18
2022-11-21T16:58:02.142Z,15.35
2022-11-21T17:00:34.878Z,15.88
2022-11-21T17:03:07.278Z,13.10
2022-11-21T17:05:39.581Z,21.30
2022-11-21T17:08:12.606Z,29.83
2022-11-21T17:10:45.034Z,18.52
2022-11-21T17:13:17.366Z,15.63
2022-11-21T17:15:49.697Z,7.38
2022-11-21T17:18:22.034Z,4.65
2022-11-21T17:20:54.367Z,12.57
2022-11-21T17:23:30.909Z,13.02
2022-11-21T17:26:03.999Z,5.45
2022-11-21T17:28:39.707Z,3.78
2022-11-21T17:31:16.907Z,9.43
2022-11-21T17:33:51.046Z,16.35
2022-11-21T17:36:25.486Z,42.17
2022-11-21T17:38:58.572Z,17.02
2022-11-21T17:41:30.872Z,15.43
2022-11-21T17:44:03.199Z,8.27
2022-11-21T17:46:35.503Z,18.73
2022-11-21T17:49:09.400Z,8.85
2022-11-21T17:51:42.113Z,6.30
2022-11-21T17:54:15.097Z,4.85
2022-11-21T17:56:52.573Z,3.75
2022-11-21T17:59:28.016Z,4.07
2022-11-21T18:02:01.390Z,3.95
2022-11-21T18:04:38.112Z,6.40
2022-11-21T18:07:10.567Z,7.00
2022-11-21T18:09:43.610Z,8.18
2022-11-21T18:12:15.977Z,10.35
2022-11-21T18:14:48.317Z,19.58
2022-11-21T18:17:20.753Z,8.50
2022-11-21T18:19:53.596Z,14.65
2022-11-21T18:22:29.594Z,8.40
2022-11-21T18:25:03.405Z,9.60
2022-11-21T18:27:35.790Z,11.05
2022-11-21T18:30:09.717Z,11.63
2022-11-21T18:32:42.920Z,22.20
2022-11-21T18:35:15.848Z,15.93
2022-11-21T18:37:48.348Z,6.50
2022-11-21T18:40:21.637Z,8.73
2022-11-21T18:42:53.999Z,4.57
2022-11-21T18:45:26.371Z,2.75
2022-11-21T18:47:58.746Z,4.50
2022-11-21T18:50:31.952Z,2.50
2022-11-21T18:53:04.280Z,9.07
2022-11-21T18:55:39.286Z,3.78
2022-11-21T18:58:12.164Z,4.03
2022-11-21T19:00:44.702Z,5.47
2022-11-21T19:03:19.099Z,9.20
2022-11-21T19:05:51.462Z,6.90
2022-11-21T19:08:25.038Z,6.53
2022-11-21T19:11:02.206Z,8.75
2022-11-21T19:13:35.500Z,5.03
2022-11-21T19:16:11.831Z,6.88
2022-11-21T19:18:51.320Z,10.52
2022-11-21T19:21:35.286Z,6.78
2022-11-21T19:24:12.301Z,8.65
2022-11-21T19:26:45.355Z,5.88
2022-11-21T19:29:18.376Z,5.95
2022-11-21T19:31:50.741Z,7.68
2022-11-21T19:34:23.125Z,8.23
2022-11-21T19:36:55.487Z,8.35
2022-11-21T19:39:29.289Z,8.15
2022-11-21T19:42:02.406Z,11.50
2022-11-21T19:44:34.750Z,23.55
2022-11-21T19:47:07.072Z,15.25
2022-11-21T19:49:39.487Z,12.15
2022-11-21T19:52:11.847Z,19.27
2022-11-21T19:54:44.207Z,19.77
2022-11-21T19:57:17.327Z,12.20
2022-11-21T19:59:49.735Z,3.42
2022-11-21T20:02:22.089Z,3.60
2022-11-21T20:04:54.419Z,3.10
2022-11-21T20:07:27.155Z,3.58
2022-11-21T20:09:59.551Z,5.18
2022-11-21T20:12:34.277Z,7.43
2022-11-21T20:15:07.942Z,8.57
2022-11-21T20:17:40.535Z,7.35
2022-11-21T20:20:12.884Z,9.13
2022-11-21T20:22:45.272Z,9.02
2022-11-21T20:25:17.585Z,8.85
2022-11-21T20:27:50.626Z,3.92
2022-11-21T20:30:24.372Z,6.60
2022-11-21T20:32:56.701Z,10.23
2022-11-21T20:35:29.023Z,12.00
2022-11-21T20:38:01.406Z,4.80
2022-11-21T20:40:33.774Z,2.92
2022-11-21T20:43:06.761Z,7.88
2022-11-21T20:48:34.190Z,7.53
2022-11-21T20:52:19.677Z,5.88
2022-11-21T20:54:03.339Z,7.18
2022-11-21T20:56:38.639Z,10.32
2022-11-21T20:59:13.746Z,11.95
2022-11-21T21:01:46.272Z,6.38
2022-11-21T21:04:18.904Z,9.00
2022-11-21T21:06:51.276Z,6.32
2022-11-21T21:09:23.663Z,2.80
2022-11-21T21:11:56.071Z,4.22
2022-11-21T21:14:29.072Z,17.48
2022-11-21T21:17:01.471Z,3.95
2022-11-21T21:19:33.769Z,8.77
2022-11-21T21:22:08.252Z,6.30
2022-11-21T21:24:40.614Z,2.85
2022-11-21T21:27:12.989Z,3.30
2022-11-21T21:29:46.077Z,2.25
2022-11-21T21:32:18.434Z,2.22
2022-11-21T21:34:50.835Z,1.40
2022-11-21T21:37:23.252Z,1.30
2022-11-21T21:39:55.636Z,3.85
2022-11-21T21:42:27.995Z,5.03
2022-11-21T21:45:01.896Z,23.55
2022-11-21T21:47:34.254Z,20.15
2022-11-21T21:50:14.419Z,20.58
2022-11-21T21:52:48.041Z,37.40
2022-11-21T21:55:20.372Z,9.60
2022-11-21T21:57:52.847Z,14.20
2022-11-21T22:00:25.851Z,38.70
2022-11-21T22:02:58.222Z,33.78
2022-11-21T22:05:31.405Z,7.63
2022-11-21T22:08:03.804Z,6.30
2022-11-21T22:10:36.156Z,4.28
2022-11-21T22:13:08.512Z,3.78
2022-11-21T22:15:41.535Z,2.00
2022-11-21T22:18:13.874Z,4.47
2022-11-21T22:20:46.248Z,5.97
2022-11-21T22:23:18.930Z,2.88
2022-11-21T22:25:55.086Z,6.38
2022-11-21T22:28:28.328Z,2.40
2022-11-21T22:31:01.447Z,6.82
2022-11-21T22:33:33.794Z,4.53
2022-11-21T22:36:07.859Z,2.83
2022-11-21T22:38:40.754Z,7.82
2022-11-21T22:41:15.537Z,4.90
2022-11-21T22:43:50.429Z,3.08
2022-11-21T22:46:24.877Z,1.65
2022-11-21T22:48:57.355Z,4.22
2022-11-21T22:51:30.094Z,5.43
2022-11-21T22:54:02.586Z,3.33
2022-11-21T22:56:35.118Z,4.97
2022-11-21T22:59:07.434Z,3.70
2022-11-21T23:01:40.461Z,2.47
2022-11-21T23:04:17.441Z,3.60
2022-11-21T23:06:50.291Z,3.25
2022-11-21T23:09:22.609Z,5.80
2022-11-21T23:11:54.981Z,2.85
2022-11-21T23:14:27.443Z,4.95
2022-11-21T23:17:00.768Z,3.25
2022-11-21T23:19:33.133Z,4.22
2022-11-21T23:22:05.633Z,4.70
2022-11-21T23:24:37.944Z,13.05
2022-11-21T23:27:10.326Z,11.77
2022-11-21T23:29:42.647Z,4.28
2022-11-21T23:32:16.394Z,3.85
2022-11-21T23:34:48.850Z,3.25
2022-11-21T23:37:21.168Z,4.35
2022-11-21T23:39:53.490Z,3.17
2022-11-21T23:42:25.774Z,2.92
2022-11-21T23:44:59.365Z,3.53
2022-11-21T23:47:32.380Z,6.13
2022-11-21T23:50:06.124Z,9.93
2022-11-21T23:52:38.473Z,3.92
2022-11-21T23:55:10.967Z,2.38
2022-11-21T23:57:46.714Z,4.97
